Time;durP1;ratioP1;P1;durP2;ratioP2;P2;SDS_P1;SDS_P2;PMS_P1;PMS_P2;Temp;Humidity;BMP_temperature;BMP_pressure;BME280_temperature;BME280_humidity;BME280_pressure;Samples;Min_cycle;Max_cycle;Signal;HPM_P1;HPM_P2
2023/10/27 00:01:05;;;;;;;20.77;12.80;;;10.00;99.90;;;;;;5091939;28;20047;-77
2023/10/27 00:03:31;;;;;;;19.65;12.40;;;10.00;99.90;;;;;;5078704;28;20040;-77
2023/10/27 00:05:57;;;;;;;17.25;11.75;;;10.00;99.90;;;;;;5064098;28;20108;-77
2023/10/27 00:08:23;;;;;;;20.20;12.13;;;10.00;99.90;;;;;;5081671;28;20492;-77
2023/10/27 00:10:49;;;;;;;21.77;12.85;;;9.90;99.90;;;;;;5081784;28;20044;-77
2023/10/27 00:13:15;;;;;;;19.00;12.07;;;9.90;99.90;;;;;;5063909;28;20051;-77
2023/10/27 00:15:40;;;;;;;17.60;11.43;;;9.90;99.90;;;;;;5079688;28;20039;-77
2023/10/27 00:18:06;;;;;;;19.33;12.05;;;9.90;99.90;;;;;;5099563;28;20407;-77
2023/10/27 00:20:31;;;;;;;17.52;11.88;;;9.80;99.90;;;;;;5081971;28;20040;-77
2023/10/27 00:22:57;;;;;;;18.85;11.77;;;9.80;99.90;;;;;;5080499;28;20036;-77
2023/10/27 00:25:24;;;;;;;18.48;12.55;;;9.80;99.90;;;;;;5086411;28;20032;-77
2023/10/27 00:27:50;;;;;;;18.05;11.48;;;9.70;99.90;;;;;;5081255;28;20040;-77
2023/10/27 00:30:16;;;;;;;19.23;12.63;;;9.70;99.90;;;;;;5115516;28;20051;-77
2023/10/27 00:32:43;;;;;;;19.00;12.25;;;9.70;99.90;;;;;;5080960;28;20048;-77
2023/10/27 00:35:09;;;;;;;18.98;12.35;;;9.60;99.90;;;;;;5089870;28;20169;-77
2023/10/27 00:37:36;;;;;;;21.48;13.82;;;9.60;99.90;;;;;;5064088;28;20044;-77
2023/10/27 00:40:03;;;;;;;20.92;13.50;;;9.60;99.90;;;;;;5081822;28;20392;-77
2023/10/27 00:42:29;;;;;;;20.77;12.30;;;9.50;99.90;;;;;;5063631;28;20040;-77
2023/10/27 00:44:54;;;;;;;20.35;12.73;;;9.60;99.90;;;;;;5088927;28;20043;-77
2023/10/27 00:47:20;;;;;;;20.77;13.90;;;9.60;99.90;;;;;;5098101;28;20036;-77
2023/10/27 00:49:46;;;;;;;21.88;13.52;;;9.60;99.90;;;;;;5070037;28;20403;-77
2023/10/27 00:52:13;;;;;;;22.20;14.88;;;9.60;99.90;;;;;;5097274;28;20036;-77
2023/10/27 00:54:40;;;;;;;20.90;14.60;;;9.60;99.90;;;;;;5077351;28;20029;-77
2023/10/27 00:57:06;;;;;;;21.80;13.63;;;9.60;99.90;;;;;;5111442;28;20060;-77
2023/10/27 00:59:32;;;;;;;23.35;13.70;;;9.60;99.90;;;;;;5072238;28;20063;-77
2023/10/27 01:01:58;;;;;;;23.15;13.80;;;9.70;99.90;;;;;;5081186;28;20075;-77
2023/10/27 01:04:27;;;;;;;19.48;13.23;;;9.60;99.90;;;;;;5065001;28;20048;-77
2023/10/27 01:06:53;;;;;;;20.42;12.93;;;9.60;99.90;;;;;;5080684;28;20071;-77
2023/10/27 01:09:19;;;;;;;17.67;11.73;;;9.70;99.90;;;;;;5079406;28;20449;-77
2023/10/27 01:11:45;;;;;;;17.67;12.65;;;9.60;99.90;;;;;;5081440;28;20036;-77
2023/10/27 01:14:11;;;;;;;19.58;12.48;;;9.70;99.90;;;;;;5078806;28;20075;-77
2023/10/27 01:16:37;;;;;;;19.42;12.73;;;9.70;99.90;;;;;;5112464;28;20086;-77
2023/10/27 01:19:02;;;;;;;17.65;11.52;;;9.70;99.90;;;;;;5089229;28;20040;-77
2023/10/27 01:21:28;;;;;;;16.35;11.35;;;9.60;99.90;;;;;;5058090;28;20066;-77
2023/10/27 01:23:54;;;;;;;18.33;11.82;;;9.60;99.90;;;;;;5059820;28;20039;-77
2023/10/27 01:26:19;;;;;;;19.05;12.32;;;9.60;99.90;;;;;;5090505;28;20040;-77
2023/10/27 01:28:45;;;;;;;19.83;12.10;;;9.60;99.90;;;;;;5093641;28;20040;-77
2023/10/27 01:31:10;;;;;;;16.70;11.02;;;9.60;99.90;;;;;;5077655;28;20469;-77
2023/10/27 01:33:38;;;;;;;18.13;11.68;;;9.60;99.90;;;;;;5077094;28;20047;-77
2023/10/27 01:36:04;;;;;;;17.55;11.95;;;9.60;99.90;;;;;;5076633;28;20079;-77
2023/10/27 01:38:29;;;;;;;18.77;11.48;;;9.60;99.90;;;;;;5061113;28;20032;-77
2023/10/27 01:40:55;;;;;;;18.25;12.23;;;9.60;99.90;;;;;;5075432;28;20407;-77
2023/10/27 01:43:21;;;;;;;17.95;12.25;;;9.60;99.90;;;;;;5056283;28;20045;-77
2023/10/27 01:45:46;;;;;;;19.23;12.45;;;9.50;99.90;;;;;;5077771;28;20032;-77
2023/10/27 01:48:12;;;;;;;18.35;12.32;;;9.60;99.90;;;;;;5077552;28;20036;-77
2023/10/27 01:50:37;;;;;;;18.20;11.82;;;9.60;99.90;;;;;;5076596;28;20028;-77
2023/10/27 01:53:03;;;;;;;17.63;11.40;;;9.60;99.90;;;;;;5111193;28;20132;-77
2023/10/27 01:55:29;;;;;;;18.75;11.93;;;9.50;99.90;;;;;;5092405;28;20395;-77
2023/10/27 01:57:55;;;;;;;19.77;12.38;;;9.60;99.90;;;;;;5075065;28;20504;-77
2023/10/27 02:00:20;;;;;;;19.70;12.48;;;9.50;99.90;;;;;;5059436;28;20089;-77
2023/10/27 02:02:46;;;;;;;19.13;11.70;;;9.50;99.90;;;;;;5060426;28;20044;-77
2023/10/27 02:05:12;;;;;;;19.15;12.35;;;9.50;99.90;;;;;;5109204;28;20051;-77
2023/10/27 02:07:38;;;;;;;21.13;10.93;;;9.50;99.90;;;;;;5076953;28;20476;-77
2023/10/27 02:10:04;;;;;;;20.08;11.57;;;9.50;99.90;;;;;;5060341;28;20036;-77
2023/10/27 02:12:30;;;;;;;17.25;11.13;;;9.60;99.90;;;;;;5087004;28;20054;-77
2023/10/27 02:14:56;;;;;;;17.75;10.80;;;9.60;99.90;;;;;;5085706;28;20040;-77
2023/10/27 02:17:21;;;;;;;16.92;10.10;;;9.70;99.90;;;;;;5075770;28;20044;-77
2023/10/27 02:19:47;;;;;;;17.88;10.95;;;9.70;99.90;;;;;;5076797;28;20044;-77
2023/10/27 02:22:13;;;;;;;16.52;10.52;;;9.80;99.90;;;;;;5074884;28;20032;-77
2023/10/27 02:24:39;;;;;;;17.40;11.05;;;9.80;99.90;;;;;;5076091;28;20400;-77
2023/10/27 02:27:05;;;;;;;17.98;11.23;;;9.70;99.90;;;;;;5074311;28;20075;-77
2023/10/27 02:29:31;;;;;;;16.92;10.60;;;9.80;99.90;;;;;;5073446;28;20461;-77
2023/10/27 02:31:56;;;;;;;16.85;9.88;;;9.80;99.90;;;;;;5108525;28;20035;-77
2023/10/27 02:34:22;;;;;;;17.30;9.88;;;9.80;99.90;;;;;;5072363;28;20523;-77
2023/10/27 02:36:47;;;;;;;15.45;9.82;;;9.80;99.90;;;;;;5072575;28;20033;-77
2023/10/27 02:39:13;;;;;;;17.50;11.15;;;9.80;99.90;;;;;;5091230;28;20050;-77
2023/10/27 02:41:38;;;;;;;17.02;10.90;;;9.80;99.90;;;;;;5076674;28;20039;-77
2023/10/27 02:44:04;;;;;;;16.92;10.63;;;9.80;99.90;;;;;;5083942;28;20043;-77
2023/10/27 02:46:32;;;;;;;17.73;10.75;;;9.90;99.90;;;;;;5076281;28;20048;-77
2023/10/27 02:48:57;;;;;;;16.27;11.35;;;9.90;99.90;;;;;;5074235;28;20036;-77
2023/10/27 02:51:23;;;;;;;18.02;11.82;;;9.80;99.90;;;;;;5091988;28;20036;-77
2023/10/27 02:53:48;;;;;;;18.10;11.70;;;9.90;99.90;;;;;;5081074;28;20032;-77
2023/10/27 02:56:14;;;;;;;20.05;12.90;;;9.90;99.90;;;;;;5104262;28;20044;-77
2023/10/27 02:58:40;;;;;;;19.70;12.20;;;9.90;99.90;;;;;;5107644;28;20048;-77
2023/10/27 03:01:09;;;;;;;19.25;12.68;;;9.80;99.90;;;;;;5092944;28;20523;-77
2023/10/27 03:03:38;;;;;;;19.42;12.82;;;9.90;99.90;;;;;;5091544;28;20047;-77
2023/10/27 03:06:04;;;;;;;19.63;13.20;;;9.90;99.90;;;;;;5062007;28;20068;-77
2023/10/27 03:08:32;;;;;;;21.00;13.10;;;9.90;99.90;;;;;;5109780;28;20089;-77
2023/10/27 03:10:57;;;;;;;18.67;12.80;;;9.90;99.90;;;;;;5073352;28;20046;-77
2023/10/27 03:13:23;;;;;;;21.42;13.55;;;9.80;99.90;;;;;;5058450;28;20052;-77
2023/10/27 03:15:48;;;;;;;19.05;11.75;;;9.90;99.90;;;;;;5075687;28;20031;-77
2023/10/27 03:18:14;;;;;;;18.85;12.45;;;9.90;99.90;;;;;;5094062;28;20123;-77
2023/10/27 03:20:40;;;;;;;20.33;12.65;;;9.90;99.90;;;;;;5074949;28;20423;-77
2023/10/27 03:23:05;;;;;;;20.25;12.45;;;9.90;99.90;;;;;;5088435;28;20051;-77
2023/10/27 03:25:31;;;;;;;20.33;12.80;;;9.90;99.90;;;;;;5075913;28;20077;-77
2023/10/27 03:27:56;;;;;;;18.33;11.40;;;9.90;99.90;;;;;;5075250;28;20043;-77
2023/10/27 03:30:22;;;;;;;22.10;12.88;;;9.90;99.90;;;;;;5093122;28;20068;-77
2023/10/27 03:32:48;;;;;;;21.33;12.05;;;9.90;99.90;;;;;;5091862;28;20040;-77
2023/10/27 03:35:14;;;;;;;19.88;13.13;;;9.90;99.90;;;;;;5085959;28;20043;-77
2023/10/27 03:37:40;;;;;;;20.95;13.18;;;9.90;99.90;;;;;;5073496;28;20063;-77
2023/10/27 03:40:06;;;;;;;18.13;11.38;;;9.90;99.90;;;;;;5074354;28;20488;-77
2023/10/27 03:42:31;;;;;;;22.02;13.10;;;9.90;99.90;;;;;;5079290;28;20108;-77
2023/10/27 03:44:57;;;;;;;19.20;12.48;;;9.90;99.90;;;;;;5091399;28;20484;-77
2023/10/27 03:47:23;;;;;;;18.17;11.80;;;9.90;99.90;;;;;;5092299;28;20137;-77
2023/10/27 03:49:48;;;;;;;19.08;12.55;;;9.90;99.90;;;;;;5074129;28;20042;-77
2023/10/27 03:52:14;;;;;;;18.73;11.50;;;9.90;99.90;;;;;;5080226;28;20127;-77
2023/10/27 03:54:39;;;;;;;18.48;12.07;;;9.90;99.90;;;;;;5079440;28;20047;-77
2023/10/27 03:57:06;;;;;;;18.52;11.85;;;9.90;99.90;;;;;;5056651;28;20047;-77
2023/10/27 03:59:31;;;;;;;17.88;11.30;;;10.00;99.90;;;;;;5074475;28;20103;-77
2023/10/27 04:01:57;;;;;;;16.73;11.43;;;10.00;99.90;;;;;;5075152;28;20036;-77
2023/10/27 04:04:23;;;;;;;17.35;11.05;;;9.90;99.90;;;;;;5057758;28;20051;-77
2023/10/27 04:06:48;;;;;;;16.88;11.15;;;10.00;99.90;;;;;;5074799;28;20040;-77
2023/10/27 04:09:14;;;;;;;19.27;11.20;;;10.00;99.90;;;;;;5073726;28;20531;-77
2023/10/27 04:11:39;;;;;;;16.52;10.88;;;10.00;99.90;;;;;;5074188;28;20029;-77
2023/10/27 04:14:05;;;;;;;18.17;10.75;;;10.00;99.90;;;;;;5070870;28;20036;-77
2023/10/27 04:16:31;;;;;;;17.60;10.85;;;10.00;99.90;;;;;;5090171;28;20036;-76
2023/10/27 04:18:57;;;;;;;18.75;11.35;;;10.00;99.90;;;;;;5074996;28;20086;-77
2023/10/27 04:21:23;;;;;;;15.80;9.82;;;10.00;99.90;;;;;;5092184;28;20504;-77
2023/10/27 04:23:48;;;;;;;16.13;10.50;;;10.00;99.90;;;;;;5088374;28;20068;-77
2023/10/27 04:26:15;;;;;;;18.58;11.05;;;10.00;99.90;;;;;;5075140;28;20041;-77
2023/10/27 04:28:42;;;;;;;18.73;11.52;;;10.00;99.90;;;;;;5074010;28;20464;-77
2023/10/27 04:31:08;;;;;;;18.73;11.20;;;10.00;99.90;;;;;;5074848;28;20040;-77
2023/10/27 04:33:37;;;;;;;16.58;10.98;;;10.00;99.90;;;;;;5069307;28;20098;-77
2023/10/27 04:36:03;;;;;;;15.23;10.18;;;9.90;99.90;;;;;;5074036;28;20048;-77
2023/10/27 04:38:29;;;;;;;17.05;10.65;;;10.00;99.90;;;;;;5076738;28;20129;-77
2023/10/27 04:40:55;;;;;;;16.27;11.57;;;10.00;99.90;;;;;;5074848;28;20490;-77
2023/10/27 04:43:21;;;;;;;16.75;10.57;;;10.00;99.90;;;;;;5072704;28;20051;-77
2023/10/27 04:45:47;;;;;;;17.80;11.18;;;10.00;99.90;;;;;;5073981;28;20504;-77
2023/10/27 04:48:13;;;;;;;19.15;12.50;;;10.00;99.90;;;;;;5072820;28;20416;-77
2023/10/27 04:50:39;;;;;;;16.38;11.10;;;10.00;99.90;;;;;;5090480;28;20043;-77
2023/10/27 04:53:04;;;;;;;16.45;11.75;;;10.00;99.90;;;;;;5093138;28;20051;-77
2023/10/27 04:55:30;;;;;;;16.30;11.25;;;10.00;99.90;;;;;;5095298;28;20044;-77
2023/10/27 04:57:55;;;;;;;16.75;10.60;;;10.00;99.90;;;;;;5060005;28;20949;-77
2023/10/27 05:00:21;;;;;;;19.70;11.63;;;10.00;99.90;;;;;;5090805;28;20487;-77
2023/10/27 05:02:47;;;;;;;16.60;10.25;;;9.90;99.90;;;;;;5095363;28;20126;-77
2023/10/27 05:05:12;;;;;;;17.13;11.25;;;10.00;99.90;;;;;;5080595;28;20048;-77
2023/10/27 05:07:38;;;;;;;15.60;11.07;;;10.00;99.90;;;;;;5077234;28;20047;-77
2023/10/27 05:10:07;;;;;;;16.48;11.10;;;9.90;99.90;;;;;;5075535;28;20046;-77
2023/10/27 05:12:35;;;;;;;15.00;10.10;;;9.90;99.90;;;;;;5061634;28;20043;-77
2023/10/27 05:15:01;;;;;;;15.68;10.50;;;9.90;99.90;;;;;;5095408;28;20089;-77
2023/10/27 05:17:26;;;;;;;16.30;10.60;;;9.90;99.90;;;;;;5060229;28;20039;-77
2023/10/27 05:19:52;;;;;;;15.70;10.32;;;9.90;99.90;;;;;;5076935;28;20056;-77
2023/10/27 05:22:18;;;;;;;14.40;9.98;;;10.00;99.90;;;;;;5077129;28;20430;-78
2023/10/27 05:24:44;;;;;;;14.95;10.60;;;10.00;99.90;;;;;;5109976;28;20082;-77
2023/10/27 05:27:09;;;;;;;15.07;10.05;;;10.00;99.90;;;;;;5078511;28;20471;-77
2023/10/27 05:29:35;;;;;;;14.82;9.75;;;10.00;99.90;;;;;;5077860;28;20028;-77
2023/10/27 05:32:00;;;;;;;15.50;11.05;;;10.00;99.90;;;;;;5071260;28;20032;-77
2023/10/27 05:34:26;;;;;;;15.98;10.07;;;10.00;99.90;;;;;;5077938;28;20042;-77
2023/10/27 05:36:51;;;;;;;14.82;10.25;;;10.00;99.90;;;;;;5077275;28;20036;-77
2023/10/27 05:39:17;;;;;;;15.48;10.45;;;10.00;99.90;;;;;;5079032;28;20044;-77
2023/10/27 05:41:45;;;;;;;16.48;11.02;;;10.00;99.90;;;;;;5076523;28;20412;-77
2023/10/27 05:44:11;;;;;;;17.23;10.93;;;10.00;99.90;;;;;;5059382;28;20043;-77
2023/10/27 05:46:37;;;;;;;14.95;9.50;;;10.00;99.90;;;;;;5077753;28;20418;-77
2023/10/27 05:49:04;;;;;;;14.45;9.88;;;10.00;99.90;;;;;;5078242;28;20043;-77
2023/10/27 05:51:30;;;;;;;15.60;10.65;;;10.10;99.90;;;;;;5058791;28;20036;-77
2023/10/27 05:53:56;;;;;;;15.30;9.93;;;10.00;99.90;;;;;;5075666;28;20173;-77
2023/10/27 05:56:21;;;;;;;14.70;10.10;;;10.00;99.90;;;;;;5076173;28;20032;-77
2023/10/27 05:58:47;;;;;;;15.43;10.50;;;10.00;99.90;;;;;;5072232;28;20110;-77
2023/10/27 06:01:12;;;;;;;14.48;10.07;;;10.00;99.90;;;;;;5073738;28;20488;-77
2023/10/27 06:03:38;;;;;;;15.57;10.55;;;10.00;99.90;;;;;;5075782;28;20381;-77
2023/10/27 06:06:04;;;;;;;15.73;10.85;;;9.90;99.90;;;;;;5076325;28;20036;-77
2023/10/27 06:08:29;;;;;;;16.30;9.95;;;9.90;99.90;;;;;;5075330;28;20066;-77
2023/10/27 06:10:55;;;;;;;15.50;11.32;;;9.90;99.90;;;;;;5073892;28;20047;-77
2023/10/27 06:13:21;;;;;;;16.05;10.13;;;9.90;99.90;;;;;;5099517;28;20590;-77
2023/10/27 06:15:46;;;;;;;15.35;10.40;;;9.90;99.90;;;;;;5067504;28;20048;-77
2023/10/27 06:18:14;;;;;;;16.48;11.15;;;9.90;99.90;;;;;;5099715;28;20060;-77
2023/10/27 06:20:39;;;;;;;15.25;10.45;;;9.80;99.90;;;;;;5093093;28;20047;-77
2023/10/27 06:23:05;;;;;;;15.63;10.95;;;9.80;99.90;;;;;;5098496;28;20403;-77
2023/10/27 06:25:30;;;;;;;15.00;11.18;;;9.90;99.90;;;;;;5072556;28;20036;-77
2023/10/27 06:27:56;;;;;;;14.90;10.32;;;9.90;99.90;;;;;;5105429;28;20451;-76
2023/10/27 06:30:23;;;;;;;16.42;10.82;;;9.90;99.90;;;;;;5077963;28;20110;-76
2023/10/27 06:32:49;;;;;;;15.25;10.02;;;9.80;99.90;;;;;;5056133;28;20085;-76
2023/10/27 06:35:15;;;;;;;16.23;11.00;;;9.80;99.90;;;;;;5078858;28;20051;-76
2023/10/27 06:37:40;;;;;;;15.38;9.75;;;9.80;99.90;;;;;;5077092;28;20051;-76
2023/10/27 06:40:06;;;;;;;15.70;10.52;;;9.90;99.90;;;;;;5061721;28;20040;-77
2023/10/27 06:42:32;;;;;;;15.32;9.93;;;9.90;99.90;;;;;;5071524;28;20040;-77
2023/10/27 06:44:59;;;;;;;14.93;10.30;;;9.80;99.90;;;;;;5074921;28;20172;-77
2023/10/27 06:47:25;;;;;;;18.40;10.57;;;9.80;99.90;;;;;;5056422;28;20044;-76
2023/10/27 06:49:51;;;;;;;15.82;10.45;;;9.90;99.90;;;;;;5057011;28;20032;-76
2023/10/27 06:52:16;;;;;;;13.27;9.32;;;9.90;99.90;;;;;;5070859;28;20162;-77
2023/10/27 06:54:42;;;;;;;15.80;10.80;;;9.90;99.90;;;;;;5067482;28;20036;-77
2023/10/27 06:57:07;;;;;;;16.65;10.75;;;9.90;99.90;;;;;;5093587;28;20055;-77
2023/10/27 06:59:33;;;;;;;14.38;10.15;;;9.80;99.90;;;;;;5068267;28;20044;-77
2023/10/27 07:01:59;;;;;;;16.55;10.93;;;9.80;99.90;;;;;;5068509;28;20047;-77
2023/10/27 07:04:24;;;;;;;15.85;10.57;;;9.80;99.90;;;;;;5074392;28;20075;-77
2023/10/27 07:06:50;;;;;;;17.50;11.68;;;9.90;99.90;;;;;;5056900;28;20509;-76
2023/10/27 07:09:16;;;;;;;15.50;10.35;;;9.90;99.90;;;;;;5096578;28;20209;-76
2023/10/27 07:11:42;;;;;;;15.27;10.55;;;9.90;99.90;;;;;;5053705;28;20028;-76
2023/10/27 07:14:09;;;;;;;15.93;10.43;;;9.90;99.90;;;;;;5073809;28;20642;-76
2023/10/27 07:16:34;;;;;;;17.67;11.07;;;9.90;99.90;;;;;;5073667;28;20079;-76
2023/10/27 07:19:00;;;;;;;16.00;11.25;;;9.90;99.90;;;;;;5073078;28;20067;-76
2023/10/27 07:21:25;;;;;;;16.65;11.23;;;9.90;99.90;;;;;;5074047;28;20094;-76
2023/10/27 07:23:51;;;;;;;17.30;11.32;;;9.90;99.90;;;;;;5072565;28;20067;-76
2023/10/27 07:26:17;;;;;;;15.88;11.45;;;9.90;99.90;;;;;;5057589;28;20427;-76
2023/10/27 07:28:43;;;;;;;18.27;11.40;;;9.90;99.90;;;;;;5086633;28;20032;-76
2023/10/27 07:31:09;;;;;;;19.00;11.60;;;9.90;99.90;;;;;;5059023;28;20102;-76
2023/10/27 07:33:38;;;;;;;19.52;11.85;;;9.90;99.90;;;;;;5090188;28;20112;-76
2023/10/27 07:36:05;;;;;;;17.30;11.48;;;9.90;99.90;;;;;;5093509;28;20040;-76
2023/10/27 07:38:31;;;;;;;18.58;11.75;;;9.90;99.90;;;;;;5082793;28;20044;-76
2023/10/27 07:40:58;;;;;;;18.90;11.63;;;9.90;99.90;;;;;;5057370;28;20040;-76
2023/10/27 07:43:24;;;;;;;18.38;12.00;;;9.90;99.90;;;;;;5074424;28;20400;-76
2023/10/27 07:45:51;;;;;;;17.17;11.35;;;9.90;99.90;;;;;;5073591;28;20067;-76
2023/10/27 07:48:17;;;;;;;19.30;11.57;;;9.90;99.90;;;;;;5091685;28;20040;-76
2023/10/27 07:50:43;;;;;;;17.00;11.20;;;9.90;99.90;;;;;;5081618;28;20439;-76
2023/10/27 07:53:09;;;;;;;17.90;11.52;;;9.90;99.90;;;;;;5104913;28;20048;-76
2023/10/27 07:55:35;;;;;;;16.20;10.90;;;9.90;99.90;;;;;;5074672;28;20070;-77
2023/10/27 07:58:01;;;;;;;18.50;10.88;;;9.90;99.90;;;;;;5057162;28;20056;-77
2023/10/27 08:00:26;;;;;;;18.35;11.35;;;9.90;99.90;;;;;;5078031;28;20055;-77
2023/10/27 08:02:52;;;;;;;15.25;10.90;;;9.90;99.90;;;;;;5092915;28;20223;-77
2023/10/27 08:05:18;;;;;;;16.95;11.63;;;10.00;99.90;;;;;;5078510;28;20028;-77
2023/10/27 08:07:45;;;;;;;16.75;10.88;;;9.90;99.90;;;;;;5088275;28;20038;-77
2023/10/27 08:10:11;;;;;;;15.98;11.30;;;10.00;99.90;;;;;;5056391;28;20028;-77
2023/10/27 08:12:37;;;;;;;16.98;10.93;;;10.00;99.90;;;;;;5073577;28;20458;-77
2023/10/27 08:15:06;;;;;;;16.63;10.60;;;10.00;99.90;;;;;;5089331;28;20043;-76
2023/10/27 08:17:33;;;;;;;18.60;11.65;;;10.00;99.90;;;;;;5091694;28;20500;-76
2023/10/27 08:19:58;;;;;;;15.50;10.25;;;10.00;99.90;;;;;;5072947;28;20036;-76
2023/10/27 08:22:24;;;;;;;17.15;11.20;;;10.00;99.90;;;;;;5073126;28;20055;-76
2023/10/27 08:24:50;;;;;;;15.18;10.48;;;10.00;99.90;;;;;;5073503;28;20066;-76
2023/10/27 08:27:15;;;;;;;16.90;10.20;;;10.00;99.90;;;;;;5077520;28;20377;-76
2023/10/27 08:29:41;;;;;;;15.75;10.70;;;10.00;99.90;;;;;;5076673;28;20039;-74
2023/10/27 08:32:06;;;;;;;17.55;12.23;;;10.00;99.90;;;;;;5093829;28;20044;-76
2023/10/27 08:34:32;;;;;;;16.00;11.25;;;10.00;99.90;;;;;;5081400;28;20040;-76
2023/10/27 08:36:58;;;;;;;16.83;11.10;;;10.00;99.90;;;;;;5059629;28;20240;-83
2023/10/27 08:39:27;;;;;;;15.82;10.63;;;10.10;99.90;;;;;;5059980;28;20051;-76
2023/10/27 08:41:53;;;;;;;18.58;11.25;;;10.00;99.90;;;;;;5093567;28;20134;-75
2023/10/27 08:44:19;;;;;;;15.02;10.43;;;10.10;99.90;;;;;;5079626;28;20127;-75
2023/10/27 08:46:45;;;;;;;15.55;10.98;;;10.10;99.90;;;;;;5077597;28;20396;-75
2023/10/27 08:49:11;;;;;;;16.70;10.77;;;10.10;99.90;;;;;;5076332;28;20396;-75
2023/10/27 08:51:39;;;;;;;16.02;11.70;;;10.00;99.90;;;;;;5096050;28;20040;-75
2023/10/27 08:54:05;;;;;;;16.10;10.77;;;10.10;99.90;;;;;;5095047;28;20127;-75
2023/10/27 08:56:32;;;;;;;16.55;10.73;;;10.10;99.90;;;;;;5095227;28;20454;-75
2023/10/27 08:58:58;;;;;;;16.95;11.00;;;10.20;99.90;;;;;;5079291;28;20040;-76
2023/10/27 09:01:26;;;;;;;16.85;12.07;;;10.20;99.90;;;;;;5094319;28;20044;-76
2023/10/27 09:04:12;;;;;;;16.50;11.38;;;10.20;99.90;;;;;;5082263;28;20479;-75
2023/10/27 09:06:39;;;;;;;16.38;10.77;;;10.20;99.90;;;;;;5095490;28;20077;-75
2023/10/27 09:09:07;;;;;;;15.70;11.18;;;10.10;99.90;;;;;;5075993;28;20051;-75
2023/10/27 09:11:42;;;;;;;17.42;11.05;;;10.10;99.90;;;;;;5076401;28;20514;-75
2023/10/27 09:14:30;;;;;;;18.58;11.18;;;10.20;99.90;;;;;;5074650;28;20630;-75
2023/10/27 09:17:09;;;;;;;16.90;11.30;;;10.20;99.90;;;;;;5077223;28;20551;-75
2023/10/27 09:19:34;;;;;;;15.60;10.18;;;10.20;99.90;;;;;;5093678;28;20039;-75
2023/10/27 09:22:00;;;;;;;16.25;10.50;;;10.20;99.90;;;;;;5058897;28;20038;-75
2023/10/27 09:24:28;;;;;;;16.65;11.20;;;10.20;99.90;;;;;;5051301;28;20071;-75
2023/10/27 09:26:56;;;;;;;16.40;11.15;;;10.30;99.90;;;;;;5075470;28;20128;-75
2023/10/27 09:29:23;;;;;;;17.17;11.15;;;10.30;99.90;;;;;;5092266;28;20066;-75
2023/10/27 09:31:50;;;;;;;16.75;11.50;;;10.30;99.90;;;;;;5093987;28;20032;-75
2023/10/27 09:34:26;;;;;;;16.80;10.60;;;10.30;99.90;;;;;;5075438;28;20051;-75
2023/10/27 09:36:56;;;;;;;16.70;11.35;;;10.30;99.90;;;;;;5074901;28;20042;-75
2023/10/27 09:39:23;;;;;;;15.63;10.23;;;10.30;99.90;;;;;;5095238;28;20101;-75
2023/10/27 09:41:58;;;;;;;16.60;11.50;;;10.40;99.90;;;;;;5108144;28;20082;-75
2023/10/27 09:44:48;;;;;;;19.15;11.52;;;10.40;99.90;;;;;;5074321;28;20120;-75
2023/10/27 09:47:22;;;;;;;17.00;11.60;;;10.40;99.90;;;;;;5070335;28;20050;-75
2023/10/27 09:49:54;;;;;;;15.95;11.07;;;10.50;99.90;;;;;;5095266;28;20062;-75
2023/10/27 09:52:21;;;;;;;17.40;11.90;;;10.50;99.90;;;;;;5076898;28;20477;-75
2023/10/27 09:54:48;;;;;;;17.38;10.48;;;10.50;99.90;;;;;;5091468;28;20032;-75
2023/10/27 09:57:14;;;;;;;16.27;10.65;;;10.50;99.90;;;;;;5093018;28;20060;-75
2023/10/27 09:59:41;;;;;;;15.85;10.60;;;10.60;99.90;;;;;;5095252;28;20036;-75
2023/10/27 10:02:07;;;;;;;17.40;11.50;;;10.60;99.90;;;;;;5093667;28;20032;-75
2023/10/27 10:04:51;;;;;;;16.55;10.27;;;10.60;99.90;;;;;;5077598;28;20504;-75
2023/10/27 10:07:33;;;;;;;15.20;10.88;;;10.60;99.90;;;;;;5077261;28;20055;-75
2023/10/27 10:10:18;;;;;;;17.65;11.10;;;10.60;99.90;;;;;;5091000;28;20116;-75
2023/10/27 10:12:59;;;;;;;18.02;11.05;;;10.60;99.90;;;;;;5073394;28;20500;-75
2023/10/27 10:15:27;;;;;;;15.77;11.23;;;10.60;99.90;;;;;;5090450;28;20098;-75
2023/10/27 10:17:53;;;;;;;16.20;11.07;;;10.60;99.90;;;;;;5069336;28;20045;-75
2023/10/27 10:20:41;;;;;;;16.75;10.48;;;10.60;99.90;;;;;;5079895;28;20377;-75
2023/10/27 10:23:08;;;;;;;14.88;10.50;;;10.70;99.90;;;;;;5088829;28;20101;-75
2023/10/27 10:25:34;;;;;;;15.60;10.60;;;10.70;99.90;;;;;;5094395;28;20046;-75
2023/10/27 10:28:08;;;;;;;16.40;11.02;;;10.70;99.90;;;;;;5079053;28;20031;-75
2023/10/27 10:30:37;;;;;;;16.65;10.90;;;10.70;99.90;;;;;;5093597;28;20048;-75
2023/10/27 10:33:25;;;;;;;15.23;10.48;;;10.60;99.90;;;;;;5094125;28;20036;-75
2023/10/27 10:35:51;;;;;;;13.77;9.93;;;10.70;99.90;;;;;;5092180;28;20039;-75
2023/10/27 10:38:23;;;;;;;16.98;10.80;;;10.70;99.90;;;;;;5071724;28;20367;-75
2023/10/27 10:40:59;;;;;;;16.02;11.48;;;10.70;99.90;;;;;;5091675;28;20079;-75
2023/10/27 10:43:30;;;;;;;16.42;11.20;;;10.70;99.90;;;;;;5093005;28;20044;-75
2023/10/27 10:46:13;;;;;;;16.75;11.13;;;10.70;99.90;;;;;;5072952;28;20036;-75
2023/10/27 10:48:44;;;;;;;16.30;10.95;;;10.70;99.90;;;;;;5092122;28;20028;-75
2023/10/27 10:51:14;;;;;;;17.00;10.88;;;10.70;99.90;;;;;;5070901;28;20519;-75
2023/10/27 10:53:40;;;;;;;15.63;11.18;;;10.80;99.90;;;;;;5076065;28;20052;-75
2023/10/27 10:56:06;;;;;;;16.08;11.20;;;10.80;99.90;;;;;;5081445;28;20040;-75
2023/10/27 10:58:40;;;;;;;17.35;10.52;;;10.80;99.90;;;;;;5086829;28;20488;-75
2023/10/27 11:01:15;;;;;;;15.93;10.30;;;10.80;99.90;;;;;;5091960;28;20036;-75
2023/10/27 11:03:54;;;;;;;16.40;11.05;;;10.80;99.90;;;;;;5074288;28;20062;-75
2023/10/27 11:06:27;;;;;;;17.00;11.77;;;10.80;99.90;;;;;;5090426;28;20038;-75
2023/10/27 11:08:53;;;;;;;15.90;10.75;;;10.90;99.90;;;;;;5074376;28;20044;-75
2023/10/27 11:11:19;;;;;;;16.27;11.18;;;10.80;99.90;;;;;;5108232;28;20062;-75
2023/10/27 11:13:56;;;;;;;16.30;10.30;;;10.80;99.90;;;;;;5055803;28;20051;-75
2023/10/27 11:16:23;;;;;;;16.05;11.10;;;10.90;99.90;;;;;;5081866;28;20408;-75
2023/10/27 11:18:53;;;;;;;15.85;10.52;;;10.90;99.90;;;;;;5074133;28;20489;-75
2023/10/27 11:21:24;;;;;;;17.25;11.57;;;10.90;99.90;;;;;;5092123;28;20418;-75
2023/10/27 11:23:50;;;;;;;18.48;12.10;;;10.90;99.90;;;;;;5100910;28;20040;-74
2023/10/27 11:26:19;;;;;;;17.23;11.07;;;10.80;99.90;;;;;;5090053;28;20393;-75
2023/10/27 11:28:46;;;;;;;19.77;11.60;;;10.80;99.90;;;;;;5088772;28;20115;-75
2023/10/27 11:31:31;;;;;;;17.52;12.25;;;10.80;99.90;;;;;;5085941;28;20028;-75
2023/10/27 11:34:01;;;;;;;16.27;10.35;;;10.80;99.90;;;;;;5092067;28;20058;-74
2023/10/27 11:36:29;;;;;;;20.55;12.30;;;10.80;99.90;;;;;;5092005;28;20492;-74
2023/10/27 11:38:55;;;;;;;20.20;12.73;;;10.90;99.90;;;;;;5074601;28;20036;-74
2023/10/27 11:41:21;;;;;;;18.42;12.15;;;10.80;99.90;;;;;;5094486;28;20085;-75
2023/10/27 11:43:47;;;;;;;18.63;12.82;;;10.80;99.90;;;;;;5092837;28;20047;-75
2023/10/27 11:46:19;;;;;;;17.83;12.55;;;10.70;99.90;;;;;;5093196;28;20081;-74
2023/10/27 11:48:45;;;;;;;20.30;12.80;;;10.80;99.90;;;;;;5074934;28;20069;-74
2023/10/27 11:51:12;;;;;;;18.77;11.82;;;10.80;99.90;;;;;;5074193;28;20374;-74
2023/10/27 11:53:45;;;;;;;17.92;11.85;;;10.80;99.90;;;;;;5092248;28;20085;-74
2023/10/27 11:56:11;;;;;;;19.30;13.45;;;10.80;99.90;;;;;;5092873;28;20046;-74
2023/10/27 11:58:37;;;;;;;19.83;13.85;;;10.80;99.90;;;;;;5074412;28;20056;-75
2023/10/27 12:01:02;;;;;;;19.77;13.65;;;10.80;99.90;;;;;;5074791;28;20047;-75
2023/10/27 12:03:28;;;;;;;18.85;12.18;;;10.80;99.90;;;;;;5073744;28;20044;-74
2023/10/27 12:05:53;;;;;;;20.00;13.15;;;10.80;99.90;;;;;;5087909;28;20171;-75
2023/10/27 12:08:20;;;;;;;19.48;13.25;;;10.80;99.90;;;;;;5071882;28;20044;-75
2023/10/27 12:10:51;;;;;;;19.08;12.68;;;10.80;99.90;;;;;;5090418;28;20504;-75
2023/10/27 12:13:17;;;;;;;20.90;14.10;;;10.80;99.90;;;;;;5091253;28;20094;-75
2023/10/27 12:15:43;;;;;;;17.55;11.80;;;10.80;99.90;;;;;;5094926;28;20032;-75
2023/10/27 12:18:08;;;;;;;23.67;13.95;;;10.80;99.90;;;;;;5091402;28;20048;-75
2023/10/27 12:20:38;;;;;;;19.75;13.63;;;10.90;99.90;;;;;;5091005;28;20553;-74
2023/10/27 12:23:05;;;;;;;19.27;12.48;;;10.80;99.90;;;;;;5091639;28;20412;-75
2023/10/27 12:25:31;;;;;;;18.48;12.18;;;10.80;99.90;;;;;;5096680;28;20036;-74
2023/10/27 12:27:56;;;;;;;21.70;14.73;;;10.80;99.90;;;;;;5093509;28;20492;-74
2023/10/27 12:30:23;;;;;;;19.02;12.82;;;10.80;99.90;;;;;;5074641;28;20035;-74
2023/10/27 12:32:49;;;;;;;19.80;13.27;;;10.80;99.90;;;;;;5064030;28;20036;-74